Time;durP1;ratioP1;P1;durP2;ratioP2;P2;SDS_P1;SDS_P2;PMS_P1;PMS_P2;Temp;Humidity;BMP_temperature;BMP_pressure;BME280_temperature;BME280_humidity;BME280_pressure;Samples;Min_cycle;Max_cycle;Signal;HPM_P1;HPM_P2
2022/10/05 00:01:24;;;;;;;;;;;;;;;20.09;48.08;96031.25;6122555;19;1776;-58
2022/10/05 00:03:29;;;;;;;;;;;;;;;20.09;48.15;96037.41;6119900;19;1850;-58
2022/10/05 00:05:33;;;;;;;;;;;;;;;20.09;47.74;96031.25;6120894;19;1573;-55
2022/10/05 00:07:37;;;;;;;;;;;;;;;20.09;48.24;96020.59;6107785;19;1681;-59
2022/10/05 00:09:40;;;;;;;;;;;;;;;20.08;48.15;96024.25;6107905;19;1818;-56
2022/10/05 00:11:46;;;;;;;;;;;;;;;20.07;48.03;96025.28;6121633;19;1848;-58
2022/10/05 00:13:50;;;;;;;;;;;;;;;20.07;48.32;96028.75;6120660;19;1845;-58
2022/10/05 00:15:54;;;;;;;;;;;;;;;20.06;48.31;96026.25;6122693;19;1672;-58
2022/10/05 00:17:57;;;;;;;;;;;;;;;20.07;47.88;96028.75;6120144;19;1809;-58
2022/10/05 00:20:01;;;;;;;;;;;;;;;20.06;47.67;96026.25;6094901;19;1599;-57
2022/10/05 00:22:11;;;;;;;;;;;;;;;20.07;48.04;96025.28;6120526;19;2110;-58
2022/10/05 00:24:15;;;;;;;;;;;;;;;20.06;48.06;96031.59;6120509;19;1904;-58
2022/10/05 00:26:20;;;;;;;;;;;;;;;20.06;48.10;96031.59;6119680;19;1656;-56
2022/10/05 00:28:28;;;;;;;;;;;;;;;20.04;48.11;96023.78;6119589;19;1850;-58
2022/10/05 00:30:34;;;;;;;;;;;;;;;20.05;47.92;96024.63;6109690;19;1739;-58
2022/10/05 00:32:37;;;;;;;;;;;;;;;20.06;47.81;96026.25;6107920;19;1852;-58
2022/10/05 00:34:40;;;;;;;;;;;;;;;20.05;48.31;96033.44;6120547;19;1695;-58
2022/10/05 00:36:44;;;;;;;;;;;;;;;20.05;48.41;96025.44;6121195;19;1852;-58
2022/10/05 00:38:48;;;;;;;;;;;;;;;20.05;48.64;96021.94;6121693;19;1796;-58
2022/10/05 00:40:58;;;;;;;;;;;;;;;20.04;48.47;96025.63;6116363;19;1722;-57
2022/10/05 00:43:08;;;;;;;;;;;;;;;20.05;48.90;96024.63;6095852;19;2138;-57
2022/10/05 00:45:17;;;;;;;;;;;;;;;20.04;48.78;96023.78;6121038;19;2435;-58
2022/10/05 00:47:31;;;;;;;;;;;;;;;20.04;48.56;96018.47;6120014;19;1894;-58
2022/10/05 00:49:45;;;;;;;;;;;;;;;20.05;49.55;96025.44;6118661;19;1814;-56
2022/10/05 00:51:52;;;;;;;;;;;;;;;20.11;49.27;96021.22;6119487;19;1765;-59
2022/10/05 00:54:01;;;;;;;;;;;;;;;20.13;50.14;96021.84;6093710;19;1872;-58
2022/10/05 00:56:07;;;;;;;;;;;;;;;20.13;49.98;96027.19;6118642;19;1802;-56
2022/10/05 00:58:16;;;;;;;;;;;;;;;20.14;50.27;96028.03;6120995;19;1821;-57
2022/10/05 01:00:24;;;;;;;;;;;;;;;20.14;50.19;96034.19;6119069;19;1760;-58
2022/10/05 01:02:32;;;;;;;;;;;;;;;20.12;50.29;96033.56;6121058;19;1873;-57
2022/10/05 01:04:40;;;;;;;;;;;;;;;20.13;50.15;96035.22;6108830;19;1751;-57
2022/10/05 01:06:49;;;;;;;;;;;;;;;20.13;50.36;96037.06;6107903;19;1647;-58
2022/10/05 01:08:59;;;;;;;;;;;;;;;20.11;50.32;96039.88;6118121;19;1848;-55
2022/10/05 01:11:06;;;;;;;;;;;;;;;20.11;50.39;96046.03;6118781;19;1808;-56
2022/10/05 01:13:14;;;;;;;;;;;;;;;20.11;50.55;96048.72;6117820;19;1873;-54
2022/10/05 01:15:21;;;;;;;;;;;;;;;20.10;50.66;96051.59;6119915;19;1917;-56
2022/10/05 01:17:29;;;;;;;;;;;;;;;20.10;50.15;96052.41;6091544;19;1870;-57
2022/10/05 01:19:50;;;;;;;;;;;;;;;20.10;50.25;96044.41;6120186;19;2176;-57
2022/10/05 01:21:55;;;;;;;;;;;;;;;20.18;50.36;96051.50;6117127;19;1116;-57
2022/10/05 01:24:19;;;;;;;;;;;;;;;20.21;50.12;96050.31;6117373;19;1858;-56
2022/10/05 01:26:32;;;;;;;;;;;;;;;20.15;50.14;96057.22;6120834;19;2081;-57
2022/10/05 01:28:39;;;;;;;;;;;;;;;20.16;50.44;96052.69;6093935;19;1890;-57
2022/10/05 01:30:49;;;;;;;;;;;;;;;20.17;51.00;96063.16;6121135;19;1761;-56
2022/10/05 01:32:56;;;;;;;;;;;;;;;20.15;51.22;96059.88;6118237;19;1849;-57
2022/10/05 01:35:02;;;;;;;;;;;;;;;20.14;50.55;96060.03;6118044;19;1793;-55
2022/10/05 01:37:08;;;;;;;;;;;;;;;20.16;50.58;96068.69;6120359;19;1902;-57
2022/10/05 01:39:17;;;;;;;;;;;;;;;20.14;50.64;96066.19;6104523;19;1848;-57
2022/10/05 01:41:25;;;;;;;;;;;;;;;20.14;51.16;96070.72;6104642;19;1885;-58
2022/10/05 01:43:31;;;;;;;;;;;;;;;20.14;50.59;96082.22;6118052;19;1729;-57
2022/10/05 01:45:45;;;;;;;;;;;;;;;20.14;50.70;96082.22;6119037;19;1852;-57
2022/10/05 01:47:50;;;;;;;;;;;;;;;20.13;50.50;96088.56;6117612;19;1947;-57
2022/10/05 01:49:56;;;;;;;;;;;;;;;20.15;50.74;96091.91;6118101;19;1661;-55
2022/10/05 01:52:05;;;;;;;;;;;;;;;20.13;50.44;96088.56;6092099;19;1809;-58
2022/10/05 01:54:14;;;;;;;;;;;;;;;20.11;50.81;96098.59;6114955;19;1931;-56
2022/10/05 01:56:21;;;;;;;;;;;;;;;20.10;49.27;96100.44;6117290;19;1895;-58
2022/10/05 01:58:30;;;;;;;;;;;;;;;20.03;50.07;96101.34;6117531;19;1989;-58
2022/10/05 02:00:34;;;;;;;;;;;;;;;20.02;49.49;96099.69;6119485;19;1897;-58
2022/10/05 02:02:42;;;;;;;;;;;;;;;20.11;49.48;96103.94;6096133;19;1867;-58
2022/10/05 02:04:48;;;;;;;;;;;;;;;20.21;49.18;96109.84;6119084;19;1922;-59
2022/10/05 02:06:52;;;;;;;;;;;;;;;20.33;49.17;96104.88;6117073;19;1769;-58
2022/10/05 02:08:59;;;;;;;;;;;;;;;20.37;49.20;96105.34;6114105;19;2025;-56
2022/10/05 02:11:05;;;;;;;;;;;;;;;20.36;48.82;96106.34;6122310;19;1842;-57
2022/10/05 02:13:13;;;;;;;;;;;;;;;20.36;49.19;96106.34;6124600;19;1864;-58
2022/10/05 02:15:18;;;;;;;;;;;;;;;20.31;49.11;96105.03;6099336;19;1659;-58
2022/10/05 02:17:26;;;;;;;;;;;;;;;20.31;49.19;96105.03;6123235;19;1761;-58
2022/10/05 02:19:34;;;;;;;;;;;;;;;20.30;49.66;96103.41;6123459;19;1826;-59
2022/10/05 02:21:38;;;;;;;;;;;;;;;20.22;49.64;96103.47;6123476;19;1843;-58
2022/10/05 02:23:42;;;;;;;;;;;;;;;20.24;49.00;96112.13;6122920;19;1583;-59
2022/10/05 02:25:47;;;;;;;;;;;;;;;20.22;49.42;96106.16;6100203;19;2456;-58
2022/10/05 02:27:51;;;;;;;;;;;;;;;20.23;49.37;96113.16;6124903;19;2066;-58
2022/10/05 02:29:58;;;;;;;;;;;;;;;20.21;49.04;96104.50;6124462;19;1835;-57
2022/10/05 02:32:04;;;;;;;;;;;;;;;20.24;48.99;96104.13;6122398;19;1896;-58
2022/10/05 02:34:22;;;;;;;;;;;;;;;20.31;48.95;96110.38;6121933;19;1905;-59
2022/10/05 02:36:32;;;;;;;;;;;;;;;20.28;49.17;96107.25;6118086;19;1860;-56
2022/10/05 02:38:41;;;;;;;;;;;;;;;20.27;48.82;96111.78;6109150;19;1850;-58
2022/10/05 02:40:50;;;;;;;;;;;;;;;20.27;49.11;96109.09;6124744;19;1847;-58
2022/10/05 02:42:58;;;;;;;;;;;;;;;20.24;48.88;96106.81;6124037;19;1820;-57
2022/10/05 02:45:08;;;;;;;;;;;;;;;20.22;49.01;96111.50;6121391;19;1192;-58
2022/10/05 02:47:14;;;;;;;;;;;;;;;20.23;49.05;96118.50;6122385;19;1774;-58
2022/10/05 02:49:24;;;;;;;;;;;;;;;20.20;49.21;96123.34;6097437;19;1842;-58
2022/10/05 02:51:35;;;;;;;;;;;;;;;20.16;49.18;96112.22;6118741;19;1102;-59
2022/10/05 02:53:45;;;;;;;;;;;;;;;20.09;48.81;96108.63;6118191;19;1861;-59
2022/10/05 02:55:56;;;;;;;;;;;;;;;20.08;48.73;96109.63;6124623;19;1496;-59
2022/10/05 02:58:05;;;;;;;;;;;;;;;20.16;48.40;96106.88;6120788;19;1465;-58
2022/10/05 03:00:11;;;;;;;;;;;;;;;20.19;48.34;96106.50;6105076;19;1855;-56
2022/10/05 03:02:17;;;;;;;;;;;;;;;20.20;48.52;96113.50;6113427;19;1682;-58
2022/10/05 03:04:27;;;;;;;;;;;;;;;20.22;48.81;96100.81;6123660;19;1780;-60
2022/10/05 03:06:36;;;;;;;;;;;;;;;20.15;47.02;96109.75;6122875;19;1885;-58
2022/10/05 03:08:43;;;;;;;;;;;;;;;19.93;46.59;96111.44;6120530;19;1010;-58
2022/10/05 03:10:49;;;;;;;;;;;;;;;19.77;46.27;96118.56;6119354;19;1752;-54
2022/10/05 03:12:55;;;;;;;;;;;;;;;19.21;43.96;96110.78;6107551;19;1454;-67
2022/10/05 03:15:03;;;;;;;;;;;;;;;18.51;45.52;96126.75;6118157;19;1857;-63
2022/10/05 03:17:11;;;;;;;;;;;;;;;18.33;46.18;96124.31;6123549;19;1492;-64
2022/10/05 03:19:23;;;;;;;;;;;;;;;18.52;44.84;96117.75;6120873;19;1057;-64
2022/10/05 03:21:34;;;;;;;;;;;;;;;18.43;44.61;96118.78;6119168;19;1789;-64
2022/10/05 03:23:46;;;;;;;;;;;;;;;18.32;43.04;96122.63;6094229;19;1002;-63
2022/10/05 03:26:00;;;;;;;;;;;;;;;18.21;43.58;96125.63;6120760;19;1140;-63
2022/10/05 03:28:08;;;;;;;;;;;;;;;18.76;42.35;96125.69;6121705;19;1674;-64
2022/10/05 03:30:15;;;;;;;;;;;;;;;19.08;42.27;96128.34;6120909;19;1692;-64
2022/10/05 03:32:23;;;;;;;;;;;;;;;19.16;42.37;96130.97;6121755;19;1860;-64
2022/10/05 03:34:34;;;;;;;;;;;;;;;18.23;41.18;96129.78;6107652;19;1837;-64
2022/10/05 03:36:43;;;;;;;;;;;;;;;18.84;41.15;96138.13;6119557;19;1755;-64
2022/10/05 03:38:53;;;;;;;;;;;;;;;18.69;40.37;96138.00;6120885;19;1681;-64
2022/10/05 03:41:00;;;;;;;;;;;;;;;18.48;40.66;96154.53;6123728;19;1822;-64
2022/10/05 03:43:08;;;;;;;;;;;;;;;18.33;40.98;96146.41;6116931;19;1663;-64
2022/10/05 03:45:19;;;;;;;;;;;;;;;18.21;40.98;96157.56;6118416;19;1385;-64
2022/10/05 03:47:27;;;;;;;;;;;;;;;18.16;40.74;96160.75;6101587;19;1131;-64
2022/10/05 03:49:36;;;;;;;;;;;;;;;18.21;40.55;96158.41;6116460;19;1467;-64
2022/10/05 03:51:42;;;;;;;;;;;;;;;18.36;40.78;96155.06;6119778;19;1089;-64
2022/10/05 03:53:47;;;;;;;;;;;;;;;18.29;40.51;96160.22;6118927;19;1853;-64
2022/10/05 03:55:58;;;;;;;;;;;;;;;18.23;40.58;96166.22;6117257;19;1132;-64
2022/10/05 03:58:07;;;;;;;;;;;;;;;18.21;40.51;96176.19;6093760;19;1257;-64
2022/10/05 04:00:15;;;;;;;;;;;;;;;18.09;40.41;96181.84;6115834;19;1058;-64
2022/10/05 04:02:23;;;;;;;;;;;;;;;18.05;40.40;96185.84;6116157;19;1097;-64
2022/10/05 04:04:30;;;;;;;;;;;;;;;18.03;40.43;96187.84;6116280;19;1058;-64
2022/10/05 04:06:37;;;;;;;;;;;;;;;18.03;40.31;96192.34;6116005;19;1062;-64
2022/10/05 04:08:44;;;;;;;;;;;;;;;18.16;40.12;96189.19;6104019;19;1465;-64
2022/10/05 04:10:50;;;;;;;;;;;;;;;18.13;40.14;96181.53;6112368;19;1625;-64
2022/10/05 04:12:58;;;;;;;;;;;;;;;18.09;40.03;96179.19;6119441;19;1034;-64
2022/10/05 04:15:04;;;;;;;;;;;;;;;18.07;39.90;96188.38;6117424;19;1846;-64
2022/10/05 04:17:10;;;;;;;;;;;;;;;18.07;39.79;96191.84;6118627;19;1160;-64
2022/10/05 04:19:16;;;;;;;;;;;;;;;17.99;39.68;96189.19;6118916;19;1041;-65
2022/10/05 04:21:22;;;;;;;;;;;;;;;17.90;39.54;96187.53;6095134;19;1205;-64
2022/10/05 04:23:30;;;;;;;;;;;;;;;17.90;39.83;96184.00;6119109;19;1030;-64
2022/10/05 04:25:37;;;;;;;;;;;;;;;17.91;39.42;96191.84;6117601;19;1543;-64
2022/10/05 04:27:43;;;;;;;;;;;;;;;17.96;39.68;96189.53;6118997;19;1202;-64
2022/10/05 04:29:53;;;;;;;;;;;;;;;17.92;39.75;96198.81;6118502;19;1098;-64
2022/10/05 04:32:13;;;;;;;;;;;;;;;17.95;39.35;96201.13;6094099;19;1153;-64
2022/10/05 04:34:23;;;;;;;;;;;;;;;17.90;39.37;96200.81;6116281;19;1842;-64
2022/10/05 04:36:30;;;;;;;;;;;;;;;18.01;39.32;96199.63;6117661;19;1120;-64
2022/10/05 04:38:42;;;;;;;;;;;;;;;17.94;39.01;96196.81;6118541;19;1124;-64
2022/10/05 04:40:53;;;;;;;;;;;;;;;17.84;39.16;96199.66;6118070;19;1113;-64
2022/10/05 04:43:03;;;;;;;;;;;;;;;17.58;39.45;96197.09;6094579;19;1148;-63
2022/10/05 04:45:18;;;;;;;;;;;;;;;17.59;39.78;96201.44;6117605;19;1258;-62
2022/10/05 04:47:27;;;;;;;;;;;;;;;17.90;39.38;96203.50;6118451;19;1089;-62
2022/10/05 04:49:38;;;;;;;;;;;;;;;17.85;39.40;96209.28;6119214;19;1282;-74
2022/10/05 04:51:47;;;;;;;;;;;;;;;17.88;39.30;96213.44;6118833;19;1382;-69
2022/10/05 04:53:55;;;;;;;;;;;;;;;17.88;39.69;96216.09;6105006;19;1869;-67
2022/10/05 04:56:02;;;;;;;;;;;;;;;18.09;38.36;96221.75;6106597;19;1145;-65
2022/10/05 04:58:11;;;;;;;;;;;;;;;18.08;38.76;96217.44;6118080;19;1062;-64
2022/10/05 05:00:22;;;;;;;;;;;;;;;17.94;38.93;96220.75;6117120;19;1089;-63
2022/10/05 05:02:30;;;;;;;;;;;;;;;17.86;39.23;96218.91;6117958;19;1046;-63
2022/10/05 05:04:40;;;;;;;;;;;;;;;17.80;39.17;96221.41;6118247;19;1006;-64
2022/10/05 05:06:48;;;;;;;;;;;;;;;17.99;38.95;96222.94;6093617;19;1049;-62
2022/10/05 05:09:04;;;;;;;;;;;;;;;18.01;39.08;96224.44;6117824;19;979;-63
2022/10/05 05:11:12;;;;;;;;;;;;;;;18.03;38.61;96222.41;6118801;19;983;-67
2022/10/05 05:13:27;;;;;;;;;;;;;;;18.00;39.12;96217.44;6118119;19;1633;-62
2022/10/05 05:15:39;;;;;;;;;;;;;;;17.83;39.08;96226.41;6115871;19;1862;-63
2022/10/05 05:17:49;;;;;;;;;;;;;;;18.02;38.84;96226.09;6094115;19;1145;-62
2022/10/05 05:19:59;;;;;;;;;;;;;;;18.12;38.58;96227.75;6118284;19;1038;-67
2022/10/05 05:22:04;;;;;;;;;;;;;;;18.00;38.93;96230.72;6116572;19;1427;-66
2022/10/05 05:24:13;;;;;;;;;;;;;;;17.99;38.49;96234.41;6118708;19;1046;-65
2022/10/05 05:26:23;;;;;;;;;;;;;;;17.98;38.56;96232.75;6118214;19;1092;-67
2022/10/05 05:28:29;;;;;;;;;;;;;;;18.00;38.53;96227.25;6093953;19;1401;-64
2022/10/05 05:30:39;;;;;;;;;;;;;;;18.03;38.43;96230.41;6116894;19;1058;-64
2022/10/05 05:32:48;;;;;;;;;;;;;;;18.03;38.95;96237.56;6117169;19;1037;-64
2022/10/05 05:34:59;;;;;;;;;;;;;;;18.01;38.61;96243.06;6116387;19;2305;-63
2022/10/05 05:37:07;;;;;;;;;;;;;;;18.02;38.58;96242.03;6115808;19;1248;-64
2022/10/05 05:39:20;;;;;;;;;;;;;;;18.01;38.97;96237.72;6103791;19;1496;-63
2022/10/05 05:41:30;;;;;;;;;;;;;;;18.04;38.85;96244.53;6104458;19;1122;-63
2022/10/05 05:43:38;;;;;;;;;;;;;;;18.04;38.63;96234.75;6114480;19;1547;-65
2022/10/05 05:45:44;;;;;;;;;;;;;;;18.08;39.08;96232.56;6115658;19;1089;-63
2022/10/05 05:47:52;;;;;;;;;;;;;;;18.08;38.95;96238.72;6116586;19;1049;-63
2022/10/05 05:50:06;;;;;;;;;;;;;;;18.09;39.14;96239.53;6116651;19;1110;-64
2022/10/05 05:52:16;;;;;;;;;;;;;;;18.11;39.06;96240.22;6091468;19;1276;-64
2022/10/05 05:54:24;;;;;;;;;;;;;;;18.10;38.93;96246.53;6116454;19;1859;-63
2022/10/05 05:56:32;;;;;;;;;;;;;;;18.08;39.25;96248.53;6116311;19;998;-64
2022/10/05 05:58:37;;;;;;;;;;;;;;;18.08;39.26;96252.00;6116427;19;1062;-63
2022/10/05 06:00:45;;;;;;;;;;;;;;;18.06;39.42;96254.00;6116440;19;974;-64
2022/10/05 06:02:55;;;;;;;;;;;;;;;18.07;39.27;96255.69;6092017;19;1114;-64
2022/10/05 06:05:00;;;;;;;;;;;;;;;18.50;38.97;96256.34;6117049;19;1074;-65
2022/10/05 06:07:05;;;;;;;;;;;;;;;18.73;39.14;96264.47;6116848;19;972;-64
2022/10/05 06:09:16;;;;;;;;;;;;;;;18.85;39.08;96256.13;6116369;19;1741;-65
2022/10/05 06:11:22;;;;;;;;;;;;;;;18.93;39.06;96253.44;6116264;19;1144;-64
2022/10/05 06:13:28;;;;;;;;;;;;;;;18.98;39.28;96262.59;6103687;19;1241;-65
2022/10/05 06:15:35;;;;;;;;;;;;;;;19.00;39.36;96257.91;6102686;19;1853;-63
2022/10/05 06:17:40;;;;;;;;;;;;;;;19.04;39.30;96260.25;6116696;19;1263;-63
2022/10/05 06:19:47;;;;;;;;;;;;;;;19.03;39.52;96263.91;6115792;19;958;-63
2022/10/05 06:21:56;;;;;;;;;;;;;;;19.07;39.56;96267.91;6115876;19;1027;-63
2022/10/05 06:24:02;;;;;;;;;;;;;;;19.06;39.46;96275.03;6115350;19;1131;-63
2022/10/05 06:26:20;;;;;;;;;;;;;;;19.10;39.45;96280.88;6091804;19;1105;-64
2022/10/05 06:28:26;;;;;;;;;;;;;;;19.11;39.78;96285.19;6114325;19;1129;-63
2022/10/05 06:30:35;;;;;;;;;;;;;;;19.14;39.75;96282.19;6115686;19;1020;-64
2022/10/05 06:32:48;;;;;;;;;;;;;;;19.18;39.53;96284.34;6113672;19;1505;-62
2022/10/05 06:35:07;;;;;;;;;;;;;;;19.24;39.64;96288.16;6113121;19;1859;-61
2022/10/05 06:37:14;;;;;;;;;;;;;;;19.22;40.16;96288.31;6091386;19;1128;-60
2022/10/05 06:39:27;;;;;;;;;;;;;;;19.25;40.04;96295.13;6115413;19;1053;-62
2022/10/05 06:41:38;;;;;;;;;;;;;;;19.26;39.88;96296.78;6115978;19;1041;-63
2022/10/05 06:43:48;;;;;;;;;;;;;;;19.27;40.47;96295.81;6114791;19;1022;-63
2022/10/05 06:45:57;;;;;;;;;;;;;;;19.27;40.65;96303.78;6114684;19;1428;-63
2022/10/05 06:48:04;;;;;;;;;;;;;;;19.29;40.73;96303.59;6090422;19;1460;-66
2022/10/05 06:50:16;;;;;;;;;;;;;;;19.33;40.71;96303.09;6113465;19;1133;-65
2022/10/05 06:52:27;;;;;;;;;;;;;;;19.35;40.80;96306.44;6112705;19;1468;-65
2022/10/05 06:54:41;;;;;;;;;;;;;;;19.34;40.77;96314.59;6112788;19;1856;-64
2022/10/05 06:56:46;;;;;;;;;;;;;;;19.35;40.75;96317.09;6115194;19;991;-65
2022/10/05 06:58:53;;;;;;;;;;;;;;;19.31;41.17;96312.28;6108077;19;1038;-64
2022/10/05 07:01:00;;;;;;;;;;;;;;;19.30;40.96;96324.78;6109492;19;1132;-64
2022/10/05 07:03:06;;;;;;;;;;;;;;;19.29;41.05;96320.47;6121381;19;1053;-64
2022/10/05 07:05:28;;;;;;;;;;;;;;;19.29;41.55;96317.78;6120871;19;1022;-64
2022/10/05 07:07:36;;;;;;;;;;;;;;;19.35;41.13;96309.09;6120706;19;1124;-65
2022/10/05 07:09:43;;;;;;;;;;;;;;;19.38;41.21;96305.25;6121361;19;1026;-64
2022/10/05 07:12:00;;;;;;;;;;;;;;;19.38;41.60;96306.09;6099278;19;1381;-65
2022/10/05 07:14:18;;;;;;;;;;;;;;;19.38;41.49;96305.25;6120079;19;1066;-64
2022/10/05 07:16:26;;;;;;;;;;;;;;;19.39;41.98;96301.59;6118833;19;1859;-64
2022/10/05 07:18:41;;;;;;;;;;;;;;;19.39;41.75;96305.06;6121516;19;1371;-64
2022/10/05 07:20:52;;;;;;;;;;;;;;;19.40;41.83;96313.91;6120389;19;967;-64
2022/10/05 07:23:04;;;;;;;;;;;;;;;19.41;42.11;96311.06;6097800;19;1132;-64
2022/10/05 07:25:11;;;;;;;;;;;;;;;19.41;41.99;96311.06;6120323;19;986;-63
2022/10/05 07:27:18;;;;;;;;;;;;;;;19.42;42.04;96311.91;6120235;19;1056;-64
2022/10/05 07:29:24;;;;;;;;;;;;;;;19.44;41.65;96305.41;6118208;19;1404;-63
2022/10/05 07:31:31;;;;;;;;;;;;;;;19.47;41.66;96304.22;6120862;19;983;-66
2022/10/05 07:33:41;;;;;;;;;;;;;;;19.45;41.98;96299.06;6097347;19;1157;-65
2022/10/05 07:38:13;;;;;;;;;;;;;;;19.45;41.88;96295.56;6120480;19;797;-64
2022/10/05 07:40:20;;;;;;;;;;;;;;;19.49;41.78;96301.38;6120304;19;1124;-63
2022/10/05 07:42:28;;;;;;;;;;;;;;;19.51;41.89;96300.19;6120008;19;967;-64
2022/10/05 07:44:35;;;;;;;;;;;;;;;19.52;40.94;96303.69;6101770;19;1169;-64
2022/10/05 07:46:45;;;;;;;;;;;;;;;19.62;41.23;96307.00;6119629;19;1117;-64
2022/10/05 07:49:02;;;;;;;;;;;;;;;19.67;40.74;96305.50;6119790;19;1046;-65
2022/10/05 07:51:09;;;;;;;;;;;;;;;19.66;40.50;96306.50;6118189;19;1231;-65
2022/10/05 07:53:16;;;;;;;;;;;;;;;19.70;40.88;96298.97;6118447;19;1360;-64
2022/10/05 07:55:21;;;;;;;;;;;;;;;19.71;40.77;96297.97;6107290;19;1838;-65
2022/10/05 07:57:29;;;;;;;;;;;;;;;19.65;40.30;96301.31;6107445;19;1331;-65
2022/10/05 07:59:35;;;;;;;;;;;;;;;19.62;40.60;96296.34;6119391;19;1164;-63
2022/10/05 08:01:41;;;;;;;;;;;;;;;19.61;40.78;96306.19;6120019;19;1035;-63
2022/10/05 08:03:51;;;;;;;;;;;;;;;19.64;40.42;96311.16;6117147;19;1537;-64
2022/10/05 08:05:54;;;;;;;;;;;;;;;19.64;40.32;96305.00;6119838;19;1050;-64
2022/10/05 08:08:05;;;;;;;;;;;;;;;19.64;40.44;96316.50;6096764;19;1128;-65
2022/10/05 08:10:19;;;;;;;;;;;;;;;19.77;40.11;96313.25;6118970;19;1086;-64
2022/10/05 08:12:26;;;;;;;;;;;;;;;19.74;40.48;96315.44;6118728;19;1086;-65
2022/10/05 08:14:36;;;;;;;;;;;;;;;19.57;39.46;96314.69;6118690;19;1127;-64
2022/10/05 08:16:40;;;;;;;;;;;;;;;19.13;39.33;96317.84;6118227;19;1850;-64
2022/10/05 08:18:57;;;;;;;;;;;;;;;18.87;39.65;96312.72;6094948;19;1062;-64
2022/10/05 08:21:00;;;;;;;;;;;;;;;18.72;39.49;96326.72;6119112;19;1136;-64
2022/10/05 08:23:10;;;;;;;;;;;;;;;18.66;39.52;96326.53;6117511;19;1414;-64
2022/10/05 08:25:21;;;;;;;;;;;;;;;18.59;39.55;96320.22;6118956;19;1045;-65
2022/10/05 08:27:27;;;;;;;;;;;;;;;18.53;39.44;96327.88;6118725;19;962;-64
2022/10/05 08:29:34;;;;;;;;;;;;;;;18.50;39.36;96332.69;6107412;19;1132;-64
2022/10/05 08:31:38;;;;;;;;;;;;;;;18.48;39.71;96329.34;6106709;19;1052;-64
2022/10/05 08:33:47;;;;;;;;;;;;;;;18.50;39.58;96333.53;6118146;19;1052;-63
2022/10/05 08:35:54;;;;;;;;;;;;;;;18.43;39.38;96321.84;6117832;19;1849;-63
2022/10/05 08:37:58;;;;;;;;;;;;;;;18.42;39.41;96322.03;6118808;19;1010;-64
2022/10/05 08:40:22;;;;;;;;;;;;;;;18.40;39.25;96327.50;6118647;19;1051;-64
2022/10/05 08:42:45;;;;;;;;;;;;;;;18.38;39.61;96328.69;6094805;19;1228;-63
2022/10/05 08:45:03;;;;;;;;;;;;;;;18.36;39.45;96320.06;6118237;19;974;-63
2022/10/05 08:47:12;;;;;;;;;;;;;;;18.55;39.70;96320.56;6118847;19;1521;-65
2022/10/05 08:49:42;;;;;;;;;;;;;;;18.80;39.40;96320.53;6116150;19;1434;-65
2022/10/05 08:52:09;;;;;;;;;;;;;;;18.98;39.23;96315.88;6116192;19;1412;-65
2022/10/05 08:54:39;;;;;;;;;;;;;;;19.07;39.31;96313.19;6106384;19;1338;-64
2022/10/05 08:56:49;;;;;;;;;;;;;;;19.14;39.73;96319.47;6113738;19;1856;-64
2022/10/05 08:59:06;;;;;;;;;;;;;;;19.16;39.49;96301.50;6117941;19;1041;-65
2022/10/05 09:01:20;;;;;;;;;;;;;;;19.21;39.58;96305.31;6118281;19;1031;-64
2022/10/05 09:03:39;;;;;;;;;;;;;;;19.27;40.02;96301.13;6106434;19;1607;-68
2022/10/05 09:05:58;;;;;;;;;;;;;;;19.37;40.08;96306.25;6105737;19;1109;-63
2022/10/05 09:08:14;;;;;;;;;;;;;;;19.41;40.05;96311.06;6116749;19;1086;-63
2022/10/05 09:10:32;;;;;;;;;;;;;;;19.49;39.88;96306.69;6117499;19;1045;-63
2022/10/05 09:12:55;;;;;;;;;;;;;;;19.55;39.98;96308.69;6117590;19;1148;-63
2022/10/05 09:15:09;;;;;;;;;;;;;;;19.56;39.98;96310.38;6106962;19;1235;-66
2022/10/05 09:17:27;;;;;;;;;;;;;;;19.60;40.12;96309.00;6105630;19;1851;-64
2022/10/05 09:19:46;;;;;;;;;;;;;;;19.62;39.77;96315.00;6116167;19;1469;-64
2022/10/05 09:21:58;;;;;;;;;;;;;;;19.63;39.97;96314.00;6116064;19;1058;-63
2022/10/05 09:24:08;;;;;;;;;;;;;;;19.63;40.19;96308.66;6117440;19;1010;-63
2022/10/05 09:26:28;;;;;;;;;;;;;;;19.59;40.29;96307.38;6105236;19;1148;-62
2022/10/05 09:28:39;;;;;;;;;;;;;;;19.61;39.99;96303.53;6109516;19;1008;-61
2022/10/05 09:30:53;;;;;;;;;;;;;;;19.60;40.16;96306.34;6117423;19;994;-61
2022/10/05 09:33:12;;;;;;;;;;;;;;;19.63;40.25;96306.00;6116414;19;1116;-61
2022/10/05 09:35:29;;;;;;;;;;;;;;;19.64;40.41;96311.16;6117118;19;1121;-61
2022/10/05 09:37:43;;;;;;;;;;;;;;;19.65;40.40;96307.50;6105494;19;1022;-61
2022/10/05 09:40:02;;;;;;;;;;;;;;;19.66;40.40;96308.31;6104849;19;974;-61
2022/10/05 09:42:15;;;;;;;;;;;;;;;19.67;40.06;96304.66;6117015;19;1101;-62
2022/10/05 09:44:39;;;;;;;;;;;;;;;19.67;40.33;96315.31;6117615;19;1050;-61
2022/10/05 09:47:00;;;;;;;;;;;;;;;19.74;40.58;96305.59;6113781;19;1394;-61
2022/10/05 09:49:18;;;;;;;;;;;;;;;19.72;40.46;96317.44;6103631;19;1532;-61
2022/10/05 09:51:37;;;;;;;;;;;;;;;19.73;40.60;96309.28;6114719;19;1666;-61
2022/10/05 09:53:51;;;;;;;;;;;;;;;19.81;40.01;96317.25;6116339;19;986;-61
2022/10/05 09:56:12;;;;;;;;;;;;;;;19.77;40.28;96305.25;6115534;19;1850;-60
2022/10/05 09:58:42;;;;;;;;;;;;;;;19.67;40.49;96310.00;6115904;19;1196;-60
2022/10/05 10:00:54;;;;;;;;;;;;;;;19.67;40.22;96307.31;6091868;19;1408;-63
2022/10/05 10:03:16;;;;;;;;;;;;;;;19.68;40.71;96308.97;6115545;19;1069;-63
2022/10/05 10:05:31;;;;;;;;;;;;;;;19.63;41.08;96311.31;6116330;19;1089;-63
2022/10/05 10:07:44;;;;;;;;;;;;;;;19.60;41.06;96309.00;6115912;19;995;-63
2022/10/05 10:09:58;;;;;;;;;;;;;;;19.58;41.00;96309.19;6115731;19;1011;-62
2022/10/05 10:12:13;;;;;;;;;;;;;;;19.58;41.01;96305.72;6095239;19;1681;-63
2022/10/05 10:14:31;;;;;;;;;;;;;;;19.57;41.07;96312.03;6115723;19;1080;-62
2022/10/05 10:16:42;;;;;;;;;;;;;;;19.57;41.46;96306.69;6113765;19;1842;-63
2022/10/05 10:19:06;;;;;;;;;;;;;;;19.58;41.59;96306.53;6116162;19;1039;-62
2022/10/05 10:21:24;;;;;;;;;;;;;;;19.58;41.71;96305.72;6116372;19;978;-62
2022/10/05 10:23:39;;;;;;;;;;;;;;;19.57;41.72;96306.69;6092296;19;1130;-62
2022/10/05 10:25:57;;;;;;;;;;;;;;;19.57;41.86;96310.19;6114589;19;1004;-63
2022/10/05 10:28:08;;;;;;;;;;;;;;;19.59;41.60;96315.34;6113976;19;1090;-62
2022/10/05 10:30:26;;;;;;;;;;;;;;;19.62;42.07;96318.50;6115872;19;1014;-62
2022/10/05 10:32:52;;;;;;;;;;;;;;;19.65;41.75;96312.00;6115386;19;891;-62
2022/10/05 10:35:10;;;;;;;;;;;;;;;19.69;41.47;96301.81;6098403;19;1054;-62
2022/10/05 10:37:35;;;;;;;;;;;;;;;19.70;41.63;96298.16;6120036;19;1858;-62
2022/10/05 10:39:44;;;;;;;;;;;;;;;19.72;41.57;96302.31;6120783;19;1061;-62
2022/10/05 10:41:54;;;;;;;;;;;;;;;19.71;41.48;96292.63;6121405;19;1167;-62
2022/10/05 10:44:21;;;;;;;;;;;;;;;19.67;41.73;96286.81;6121940;19;1041;-61
2022/10/05 10:46:34;;;;;;;;;;;;;;;19.70;41.48;96285.66;6097359;19;1267;-61
2022/10/05 10:48:52;;;;;;;;;;;;;;;19.70;41.45;96280.31;6121757;19;1090;-62
2022/10/05 10:51:03;;;;;;;;;;;;;;;19.71;41.82;96279.28;6119678;19;1074;-63
2022/10/05 10:53:18;;;;;;;;;;;;;;;19.70;41.68;96277.63;6119938;19;1381;-62
2022/10/05 10:55:32;;;;;;;;;;;;;;;19.72;41.44;96277.44;6120691;19;1145;-62
2022/10/05 10:57:44;;;;;;;;;;;;;;;19.72;41.45;96264.97;6094952;19;1858;-62
2022/10/05 11:00:02;;;;;;;;;;;;;;;19.72;41.82;96269.44;6121002;19;1124;-62
2022/10/05 11:02:20;;;;;;;;;;;;;;;19.72;41.86;96275.63;6121109;19;978;-62
2022/10/05 11:04:36;;;;;;;;;;;;;;;19.74;41.72;96262.94;6119924;19;1012;-62
2022/10/05 11:07:00;;;;;;;;;;;;;;;19.74;41.83;96265.59;6121077;19;1066;-62
2022/10/05 11:09:21;;;;;;;;;;;;;;;19.75;41.86;96259.28;6096574;19;1272;-62
2022/10/05 11:11:30;;;;;;;;;;;;;;;19.74;41.87;96260.28;6121026;19;1029;-63
2022/10/05 11:13:51;;;;;;;;;;;;;;;19.75;41.32;96251.28;6120755;19;1163;-64
2022/10/05 11:16:05;;;;;;;;;;;;;;;19.81;41.07;96247.91;6118360;19;1562;-65
2022/10/05 11:18:19;;;;;;;;;;;;;;;19.83;40.84;96245.91;6120846;19;1106;-64
2022/10/05 11:20:37;;;;;;;;;;;;;;;19.84;40.67;96244.88;6096638;19;1214;-62
2022/10/05 11:22:52;;;;;;;;;;;;;;;19.83;41.35;96248.56;6120139;19;982;-62
2022/10/05 11:25:10;;;;;;;;;;;;;;;19.83;41.46;96243.22;6119867;19;1038;-61
2022/10/05 11:27:24;;;;;;;;;;;;;;;19.79;41.72;96241.91;6119734;19;1034;-62
2022/10/05 11:29:50;;;;;;;;;;;;;;;19.78;41.46;96245.59;6120503;19;1081;-61
2022/10/05 11:32:15;;;;;;;;;;;;;;;19.77;41.31;96233.25;6096375;19;1186;-62